Time;durP1;ratioP1;P1;durP2;ratioP2;P2;SDS_P1;SDS_P2;PMS_P1;PMS_P2;Temp;Humidity;BMP_temperature;BMP_pressure;BME280_temperature;BME280_humidity;BME280_pressure;Samples;Min_cycle;Max_cycle;Signal;HPM_P1;HPM_P2
2021/01/17 00:00:05;;;;;;;3.83;2.07;;;-2.00;99.90;;;;;;5051864;28;20199;-64
2021/01/17 00:02:32;;;;;;;5.27;2.00;;;-2.00;99.90;;;;;;5051901;28;20247;-64
2021/01/17 00:04:58;;;;;;;3.30;1.97;;;-1.90;99.90;;;;;;5052150;28;20227;-65
2021/01/17 00:07:28;;;;;;;4.33;1.83;;;-1.90;99.90;;;;;;5051497;28;20290;-64
2021/01/17 00:09:54;;;;;;;5.00;2.00;;;-2.00;99.90;;;;;;5052290;28;20282;-63
2021/01/17 00:12:22;;;;;;;5.13;2.10;;;-1.90;99.90;;;;;;5051848;28;20219;-64
2021/01/17 00:14:48;;;;;;;5.87;2.27;;;-1.90;99.90;;;;;;5051548;28;20652;-65
2021/01/17 00:17:15;;;;;;;4.60;2.47;;;-1.90;99.90;;;;;;5051418;28;20242;-63
2021/01/17 00:19:41;;;;;;;6.90;2.00;;;-1.90;99.90;;;;;;5051966;28;20284;-64
2021/01/17 00:22:07;;;;;;;4.33;2.13;;;-1.90;99.90;;;;;;5051506;28;20227;-65
2021/01/17 00:24:34;;;;;;;4.17;2.17;;;-1.90;99.90;;;;;;5051580;28;20667;-63
2021/01/17 00:27:00;;;;;;;5.67;2.40;;;-1.90;99.90;;;;;;5051412;28;20239;-66
2021/01/17 00:29:27;;;;;;;4.87;2.17;;;-1.90;99.90;;;;;;5051435;28;20279;-64
2021/01/17 00:31:54;;;;;;;6.70;2.50;;;-1.90;99.90;;;;;;5051586;28;20230;-65
2021/01/17 00:34:21;;;;;;;6.33;2.33;;;-1.90;99.90;;;;;;5051488;28;20229;-65
2021/01/17 00:36:47;;;;;;;6.50;2.20;;;-1.90;99.90;;;;;;5051794;28;20653;-65
2021/01/17 00:39:13;;;;;;;9.67;2.70;;;-1.90;99.90;;;;;;5051219;28;20282;-65
2021/01/17 00:41:40;;;;;;;9.30;2.67;;;-1.90;99.90;;;;;;5050874;28;20214;-64
2021/01/17 00:44:07;;;;;;;8.83;3.30;;;-1.90;99.90;;;;;;5051568;28;20626;-64
2021/01/17 00:46:38;;;;;;;10.27;2.90;;;-1.90;99.90;;;;;;5051233;28;20223;-64
2021/01/17 00:49:05;;;;;;;8.33;3.33;;;-1.90;99.90;;;;;;5051494;28;20234;-63
2021/01/17 00:51:41;;;;;;;6.13;2.93;;;-1.90;99.90;;;;;;5051880;28;20235;-63
2021/01/17 00:54:08;;;;;;;4.17;2.40;;;-1.80;99.90;;;;;;5050834;28;20645;-64
2021/01/17 00:56:34;;;;;;;3.40;1.97;;;-1.70;99.90;;;;;;5050752;28;20219;-63
2021/01/17 00:59:01;;;;;;;2.80;1.97;;;-1.80;99.90;;;;;;5050976;28;20241;-65
2021/01/17 01:01:27;;;;;;;3.47;2.20;;;-1.80;99.90;;;;;;5050860;28;20251;-64
2021/01/17 01:03:54;;;;;;;5.20;2.33;;;-1.80;99.90;;;;;;5050889;28;20219;-64
2021/01/17 01:06:21;;;;;;;4.60;2.13;;;-1.80;99.90;;;;;;5050932;28;20657;-66
2021/01/17 01:08:48;;;;;;;7.27;2.50;;;-1.80;99.90;;;;;;5050633;28;20720;-64
2021/01/17 01:11:18;;;;;;;4.83;2.50;;;-1.80;99.90;;;;;;5051062;28;20283;-63
2021/01/17 01:13:45;;;;;;;10.20;2.57;;;-1.90;99.90;;;;;;5051298;28;20191;-64
2021/01/17 01:16:14;;;;;;;7.30;2.80;;;-1.90;99.90;;;;;;5050663;28;20287;-66
2021/01/17 01:18:41;;;;;;;6.17;2.73;;;-1.90;99.90;;;;;;5051271;28;20336;-63
2021/01/17 01:21:08;;;;;;;12.43;3.00;;;-1.90;99.90;;;;;;5050978;28;20234;-65
2021/01/17 01:23:35;;;;;;;6.43;2.70;;;-1.80;99.90;;;;;;5050850;28;20723;-63
2021/01/17 01:26:02;;;;;;;9.37;2.70;;;-1.80;99.90;;;;;;5050509;28;20649;-65
2021/01/17 01:28:28;;;;;;;11.67;2.77;;;-1.80;99.90;;;;;;5050473;28;20740;-65
2021/01/17 01:30:57;;;;;;;4.47;2.50;;;-1.80;99.90;;;;;;5050686;28;20211;-65
2021/01/17 01:33:24;;;;;;;5.17;2.40;;;-1.80;99.90;;;;;;5050468;28;20638;-64
2021/01/17 01:35:50;;;;;;;4.63;2.00;;;-1.90;99.90;;;;;;5050711;28;20350;-63
2021/01/17 01:38:18;;;;;;;3.17;2.03;;;-1.90;99.90;;;;;;5050839;28;20227;-65
2021/01/17 01:40:54;;;;;;;2.57;1.70;;;-1.90;99.90;;;;;;5051192;28;20234;-64
2021/01/17 01:43:22;;;;;;;4.53;1.70;;;-1.80;99.90;;;;;;5051022;28;20225;-63
2021/01/17 01:45:49;;;;;;;2.17;1.70;;;-1.90;99.90;;;;;;5050734;28;20227;-64
2021/01/17 01:48:16;;;;;;;2.20;1.63;;;-1.90;99.90;;;;;;5050899;28;20674;-64
2021/01/17 01:50:42;;;;;;;2.20;1.77;;;-2.00;99.90;;;;;;5051282;28;20191;-64
2021/01/17 01:53:10;;;;;;;2.47;1.70;;;-2.00;99.90;;;;;;5050285;28;20604;-65
2021/01/17 01:55:37;;;;;;;3.20;1.67;;;-2.00;99.90;;;;;;5050553;28;20219;-65
2021/01/17 01:58:06;;;;;;;4.27;1.87;;;-2.00;99.90;;;;;;5050044;28;20265;-66
2021/01/17 02:00:33;;;;;;;2.97;1.70;;;-2.00;99.90;;;;;;5049795;28;20218;-64
2021/01/17 02:03:00;;;;;;;2.30;1.73;;;-1.90;99.90;;;;;;5050226;28;20265;-65
2021/01/17 02:05:26;;;;;;;2.90;1.90;;;-1.80;99.90;;;;;;5050047;28;20282;-63
2021/01/17 02:08:24;;;;;;;2.20;1.67;;;-1.90;99.90;;;;;;5049902;28;20277;-62
2021/01/17 02:10:52;;;;;;;2.87;2.20;;;-1.90;99.90;;;;;;5050546;28;20192;-64
2021/01/17 02:13:23;;;;;;;2.33;1.70;;;-1.90;99.90;;;;;;5050214;28;20386;-64
2021/01/17 02:15:54;;;;;;;3.87;2.00;;;-1.90;99.90;;;;;;5050409;28;20298;-63
2021/01/17 02:18:22;;;;;;;3.00;1.80;;;-1.90;99.90;;;;;;5050656;28;20295;-64
2021/01/17 02:20:50;;;;;;;2.37;1.77;;;-2.00;99.90;;;;;;5050299;28;20633;-64
2021/01/17 02:23:22;;;;;;;2.97;2.00;;;-2.00;99.90;;;;;;5053671;28;20216;-67
2021/01/17 02:25:49;;;;;;;3.10;2.17;;;-2.00;99.90;;;;;;5053911;28;20218;-64
2021/01/17 02:28:18;;;;;;;3.93;2.20;;;-1.90;99.90;;;;;;5053697;28;20621;-65
2021/01/17 02:30:48;;;;;;;2.50;1.90;;;-1.90;99.90;;;;;;5053598;28;20672;-64
2021/01/17 02:33:18;;;;;;;6.57;2.20;;;-1.90;99.90;;;;;;5053671;28;20222;-64
2021/01/17 02:35:46;;;;;;;6.80;3.10;;;-1.90;99.90;;;;;;5053897;28;20223;-64
2021/01/17 02:38:29;;;;;;;6.97;2.67;;;-1.90;99.90;;;;;;5053577;28;20285;-64
2021/01/17 02:41:08;;;;;;;5.20;2.80;;;-1.90;99.90;;;;;;5053866;28;20212;-64
2021/01/17 02:43:35;;;;;;;3.47;2.83;;;-1.80;99.90;;;;;;5053632;28;20586;-64
2021/01/17 02:46:02;;;;;;;4.23;2.40;;;-1.90;99.90;;;;;;5053549;28;20283;-63
2021/01/17 02:48:28;;;;;;;4.27;2.60;;;-1.90;99.90;;;;;;5053412;28;20270;-65
2021/01/17 02:50:55;;;;;;;7.67;2.97;;;-1.90;99.90;;;;;;5053452;28;20196;-64
2021/01/17 02:53:26;;;;;;;5.90;2.83;;;-1.80;99.90;;;;;;5053531;28;20220;-64
2021/01/17 02:55:54;;;;;;;4.93;3.00;;;-1.80;99.90;;;;;;5052963;28;20281;-65
2021/01/17 02:58:24;;;;;;;4.80;3.40;;;-1.80;99.90;;;;;;5053358;28;20248;-63
2021/01/17 03:00:55;;;;;;;3.90;2.57;;;-1.90;99.90;;;;;;5053306;28;20188;-65
2021/01/17 03:03:30;;;;;;;4.07;3.20;;;-1.90;99.90;;;;;;5053204;28;20661;-66
2021/01/17 03:05:59;;;;;;;3.73;2.83;;;-1.90;99.90;;;;;;5053260;28;20274;-63
2021/01/17 03:08:27;;;;;;;3.83;2.60;;;-1.90;99.90;;;;;;5052762;28;20223;-63
2021/01/17 03:10:54;;;;;;;3.07;2.30;;;-1.90;99.90;;;;;;5052966;28;20284;-65
2021/01/17 03:13:23;;;;;;;3.60;2.43;;;-1.90;99.90;;;;;;5052650;28;20271;-65
2021/01/17 03:15:50;;;;;;;3.70;2.67;;;-1.90;99.90;;;;;;5052931;28;20253;-64
2021/01/17 03:18:16;;;;;;;4.60;2.70;;;-1.90;99.90;;;;;;5052732;28;20669;-67
2021/01/17 03:20:43;;;;;;;4.10;2.20;;;-1.90;99.90;;;;;;5052524;28;20302;-64
2021/01/17 03:23:09;;;;;;;2.30;1.93;;;-1.90;99.90;;;;;;5053041;28;20192;-65
2021/01/17 03:25:35;;;;;;;4.53;1.97;;;-1.90;99.90;;;;;;5052615;28;20281;-65
2021/01/17 03:28:02;;;;;;;4.63;2.40;;;-1.90;99.90;;;;;;5052799;28;20306;-66
2021/01/17 03:30:29;;;;;;;2.70;1.97;;;-1.90;99.90;;;;;;5052673;28;20290;-63
2021/01/17 03:32:55;;;;;;;2.40;2.10;;;-1.80;99.90;;;;;;5047897;28;20267;-64
2021/01/17 03:35:22;;;;;;;2.70;1.70;;;-1.80;99.90;;;;;;5052172;28;20246;-63
2021/01/17 03:37:48;;;;;;;2.67;1.90;;;-1.90;99.90;;;;;;5051816;28;20235;-65
2021/01/17 03:40:15;;;;;;;2.53;1.77;;;-1.80;99.90;;;;;;5052602;28;20230;-65
2021/01/17 03:42:41;;;;;;;2.37;2.10;;;-1.90;99.90;;;;;;5052046;28;20290;-63
2021/01/17 03:45:09;;;;;;;2.03;1.70;;;-1.80;99.90;;;;;;5052342;28;20327;-64
2021/01/17 03:47:36;;;;;;;1.80;1.67;;;-1.90;99.90;;;;;;5051936;28;20258;-63
2021/01/17 03:50:03;;;;;;;2.23;1.73;;;-1.90;99.90;;;;;;5051892;28;20653;-64
2021/01/17 03:52:29;;;;;;;3.27;1.67;;;-1.90;99.90;;;;;;5051866;28;20223;-65
2021/01/17 03:54:56;;;;;;;1.87;1.70;;;-1.90;99.90;;;;;;5051793;28;20241;-64
2021/01/17 03:57:22;;;;;;;3.40;1.63;;;-1.90;99.90;;;;;;5051944;28;20380;-63
2021/01/17 03:59:48;;;;;;;2.77;1.80;;;-1.90;99.90;;;;;;5051983;28;20661;-64
2021/01/17 04:02:15;;;;;;;2.17;1.57;;;-1.90;99.90;;;;;;5051917;28;20319;-63
2021/01/17 04:04:42;;;;;;;4.83;2.07;;;-1.90;99.90;;;;;;5052149;28;20235;-63
2021/01/17 04:07:08;;;;;;;2.73;2.17;;;-1.90;99.90;;;;;;5051328;28;20310;-65
2021/01/17 04:09:35;;;;;;;6.10;2.70;;;-1.90;99.90;;;;;;5051476;28;20227;-65
2021/01/17 04:12:02;;;;;;;5.23;2.63;;;-2.00;99.90;;;;;;5052270;28;20516;-64
2021/01/17 04:14:28;;;;;;;5.57;2.87;;;-1.90;99.90;;;;;;5051666;28;20548;-64
2021/01/17 04:16:54;;;;;;;8.97;3.27;;;-2.00;99.90;;;;;;5051970;28;20283;-63
2021/01/17 04:19:21;;;;;;;5.17;2.93;;;-1.90;99.90;;;;;;5051622;28;20196;-63
2021/01/17 04:21:48;;;;;;;5.90;3.03;;;-2.00;99.90;;;;;;5051704;28;20223;-65
2021/01/17 04:24:16;;;;;;;5.53;2.80;;;-2.00;99.90;;;;;;5052065;28;20535;-65
2021/01/17 04:26:43;;;;;;;5.83;3.50;;;-2.10;99.90;;;;;;5051873;28;20243;-64
2021/01/17 04:29:09;;;;;;;5.30;3.23;;;-2.00;99.90;;;;;;5051418;28;20212;-63
2021/01/17 04:31:40;;;;;;;3.37;2.90;;;-2.00;99.90;;;;;;5051181;28;20241;-65
2021/01/17 04:34:07;;;;;;;6.23;3.00;;;-2.00;99.90;;;;;;5051753;28;20659;-65
2021/01/17 04:36:33;;;;;;;4.50;3.00;;;-2.00;99.90;;;;;;5051334;28;20234;-64
2021/01/17 04:39:01;;;;;;;3.70;3.00;;;-2.00;99.90;;;;;;5051291;28;20361;-65
2021/01/17 04:41:28;;;;;;;5.03;3.10;;;-2.00;99.90;;;;;;5051279;28;20625;-65
2021/01/17 04:43:57;;;;;;;3.80;3.33;;;-2.00;99.90;;;;;;5051361;28;20587;-66
2021/01/17 04:46:26;;;;;;;4.90;3.13;;;-2.00;99.90;;;;;;5050856;28;20602;-65
2021/01/17 04:48:58;;;;;;;7.43;3.13;;;-2.00;99.90;;;;;;5050555;28;20211;-64
2021/01/17 04:51:27;;;;;;;4.97;2.80;;;-2.00;99.90;;;;;;5051822;28;20194;-63
2021/01/17 04:53:53;;;;;;;4.57;3.30;;;-2.00;99.90;;;;;;5051004;28;20744;-65
2021/01/17 04:56:25;;;;;;;4.57;3.63;;;-2.00;99.90;;;;;;5051248;28;20226;-65
2021/01/17 04:59:11;;;;;;;5.27;3.70;;;-2.00;99.90;;;;;;5051537;28;20508;-64
2021/01/17 05:01:50;;;;;;;9.00;3.80;;;-2.00;99.90;;;;;;5050810;28;20333;-65
2021/01/17 05:04:33;;;;;;;4.90;3.47;;;-2.00;99.90;;;;;;5051361;28;20187;-63
2021/01/17 05:07:05;;;;;;;7.70;3.70;;;-1.90;99.90;;;;;;5050577;28;20230;-63
2021/01/17 05:09:32;;;;;;;7.27;4.00;;;-2.00;99.90;;;;;;5051208;28;20219;-64
2021/01/17 05:12:11;;;;;;;9.17;3.93;;;-2.00;99.90;;;;;;5050927;28;20237;-62
2021/01/17 05:14:42;;;;;;;6.17;3.43;;;-2.00;99.90;;;;;;5051291;28;20658;-63
2021/01/17 05:17:09;;;;;;;4.43;3.40;;;-2.00;99.90;;;;;;5051094;28;20186;-65
2021/01/17 05:19:37;;;;;;;5.03;3.60;;;-2.00;99.90;;;;;;5051101;28;20221;-63
2021/01/17 05:22:05;;;;;;;5.23;3.50;;;-2.00;99.90;;;;;;5050890;28;20200;-65
2021/01/17 05:24:32;;;;;;;5.67;3.70;;;-2.00;99.90;;;;;;5051430;28;20264;-64
2021/01/17 05:27:00;;;;;;;6.80;4.13;;;-2.00;99.90;;;;;;5050819;28;20719;-64
2021/01/17 05:29:29;;;;;;;8.23;3.50;;;-2.00;99.90;;;;;;5050562;28;20203;-64
2021/01/17 05:31:57;;;;;;;5.03;3.60;;;-2.00;99.90;;;;;;5050663;28;20210;-65
2021/01/17 05:34:23;;;;;;;4.93;3.93;;;-2.00;99.90;;;;;;5051001;28;20219;-63
2021/01/17 05:37:02;;;;;;;6.27;3.73;;;-2.00;99.90;;;;;;5050674;28;20266;-62
2021/01/17 05:39:28;;;;;;;5.03;3.40;;;-2.00;99.90;;;;;;5051294;28;20202;-64
2021/01/17 05:42:05;;;;;;;7.10;3.47;;;-2.10;99.90;;;;;;5050457;28;20196;-65
2021/01/17 05:44:32;;;;;;;5.70;3.00;;;-2.00;99.90;;;;;;5050270;28;20600;-65
2021/01/17 05:47:04;;;;;;;5.13;3.10;;;-2.10;99.90;;;;;;5050227;28;20569;-64
2021/01/17 05:49:31;;;;;;;8.00;3.67;;;-2.10;99.90;;;;;;5050204;28;20222;-65
2021/01/17 05:52:13;;;;;;;5.33;3.53;;;-2.10;99.90;;;;;;5050277;28;20335;-63
2021/01/17 05:54:42;;;;;;;4.00;3.30;;;-2.00;99.90;;;;;;5047679;28;20279;-64
2021/01/17 05:57:15;;;;;;;5.27;3.33;;;-2.00;99.90;;;;;;5053726;28;20290;-66
2021/01/17 05:59:43;;;;;;;6.73;3.90;;;-2.10;99.90;;;;;;5053624;28;20184;-64
2021/01/17 06:02:13;;;;;;;10.73;4.07;;;-2.00;99.90;;;;;;5054720;28;20316;-63
2021/01/17 06:04:42;;;;;;;6.03;3.70;;;-2.10;99.90;;;;;;5054283;28;20226;-64
2021/01/17 06:07:09;;;;;;;4.33;3.80;;;-2.10;99.90;;;;;;5054566;28;20202;-64
2021/01/17 06:09:37;;;;;;;8.43;4.27;;;-2.00;99.90;;;;;;5054103;28;20206;-64
2021/01/17 06:12:05;;;;;;;7.07;4.60;;;-2.00;99.90;;;;;;5053823;28;20230;-63
2021/01/17 06:14:31;;;;;;;7.77;4.60;;;-2.00;99.90;;;;;;5054059;28;20279;-63
2021/01/17 06:17:01;;;;;;;7.60;4.87;;;-2.00;99.90;;;;;;5053843;28;20553;-64
2021/01/17 06:19:35;;;;;;;9.07;4.80;;;-2.10;99.90;;;;;;5053969;28;20290;-63
2021/01/17 06:22:04;;;;;;;7.93;4.73;;;-2.20;99.90;;;;;;5053921;28;20684;-64
2021/01/17 06:24:39;;;;;;;9.30;5.67;;;-2.20;99.90;;;;;;5054483;28;20184;-64
2021/01/17 06:27:07;;;;;;;8.13;5.50;;;-2.20;99.90;;;;;;5053794;28;20188;-64
2021/01/17 06:29:39;;;;;;;6.80;5.13;;;-2.20;99.90;;;;;;5034070;28;20282;-64
2021/01/17 06:32:18;;;;;;;6.43;4.43;;;-2.20;99.90;;;;;;5052391;28;20589;-64
2021/01/17 06:34:46;;;;;;;7.97;4.63;;;-2.30;99.90;;;;;;5053804;28;20340;-65
2021/01/17 06:37:14;;;;;;;8.67;5.50;;;-2.30;99.90;;;;;;5054002;28;20196;-63
2021/01/17 06:39:47;;;;;;;7.53;5.20;;;-2.30;99.90;;;;;;5053631;28;20196;-64
2021/01/17 06:42:16;;;;;;;10.20;5.30;;;-2.30;99.90;;;;;;5054113;28;20180;-65
2021/01/17 06:44:43;;;;;;;11.00;6.10;;;-2.30;99.90;;;;;;5053715;28;20227;-64
2021/01/17 06:47:19;;;;;;;9.53;5.73;;;-2.20;99.90;;;;;;5053727;28;20254;-67
2021/01/17 06:49:46;;;;;;;14.27;5.80;;;-2.20;99.90;;;;;;5054279;28;20230;-65
2021/01/17 06:52:14;;;;;;;10.83;5.43;;;-2.20;99.90;;;;;;5053212;28;20280;-63
2021/01/17 06:54:42;;;;;;;11.13;5.43;;;-2.20;99.90;;;;;;5053487;28;20186;-66
2021/01/17 06:57:09;;;;;;;8.57;5.60;;;-2.10;99.90;;;;;;5053154;28;20676;-64
2021/01/17 06:59:37;;;;;;;9.03;5.37;;;-2.10;99.90;;;;;;5052858;28;20219;-64
2021/01/17 07:02:45;;;;;;;6.03;3.60;;;-2.10;99.90;;;;;;5053102;28;20272;-64
2021/01/17 07:05:53;;;;;;;8.57;4.83;;;-2.10;99.90;;;;;;5049561;28;20320;-66
2021/01/17 07:08:48;;;;;;;6.77;4.33;;;-2.10;99.90;;;;;;5041840;28;20314;-65
2021/01/17 07:11:37;;;;;;;7.70;5.40;;;-2.10;99.90;;;;;;5052880;28;20187;-65
2021/01/17 07:14:07;;;;;;;9.07;4.43;;;-2.00;99.90;;;;;;5047729;28;20219;-64
2021/01/17 07:16:35;;;;;;;5.67;3.90;;;-2.00;99.90;;;;;;5052339;28;20613;-66
2021/01/17 07:19:07;;;;;;;4.37;3.60;;;-2.10;99.90;;;;;;5053282;28;20298;-63
2021/01/17 07:21:36;;;;;;;4.83;3.77;;;-2.00;99.90;;;;;;5052700;28;20271;-64
2021/01/17 07:24:06;;;;;;;4.37;3.37;;;-2.00;99.90;;;;;;5052795;28;20192;-64
2021/01/17 07:27:15;;;;;;;7.23;3.77;;;-2.00;99.90;;;;;;5052661;28;20742;-64
2021/01/17 07:29:43;;;;;;;5.27;3.47;;;-2.00;99.90;;;;;;5013137;28;20206;-65
2021/01/17 07:32:31;;;;;;;6.30;3.10;;;-2.00;99.90;;;;;;5034423;28;20246;-63
2021/01/17 07:35:07;;;;;;;10.60;4.00;;;-2.00;99.90;;;;;;5052821;28;20215;-63
2021/01/17 07:37:34;;;;;;;10.17;4.10;;;-1.90;99.90;;;;;;5052522;28;20697;-64
2021/01/17 07:40:08;;;;;;;6.53;3.80;;;-2.00;99.90;;;;;;5052127;28;20741;-65
2021/01/17 07:42:36;;;;;;;7.40;3.00;;;-1.90;99.90;;;;;;5052321;28;20329;-63
2021/01/17 07:45:14;;;;;;;5.80;2.90;;;-1.90;99.90;;;;;;5051712;28;20203;-63
2021/01/17 07:47:43;;;;;;;5.37;2.80;;;-1.90;99.90;;;;;;5051075;28;20231;-63
2021/01/17 07:50:11;;;;;;;7.23;3.10;;;-1.90;99.90;;;;;;5053022;28;20187;-66
2021/01/17 07:52:42;;;;;;;7.93;2.77;;;-1.90;99.90;;;;;;5051600;28;20318;-68
2021/01/17 07:55:13;;;;;;;6.57;3.23;;;-1.90;99.90;;;;;;5052484;28;20195;-65
2021/01/17 07:57:45;;;;;;;7.40;3.87;;;-1.90;99.90;;;;;;5052315;28;20218;-65
2021/01/17 08:00:14;;;;;;;6.83;3.83;;;-1.90;99.90;;;;;;5051409;28;20199;-65
2021/01/17 08:02:41;;;;;;;6.97;3.40;;;-1.80;99.90;;;;;;5051406;28;20283;-64
2021/01/17 08:05:08;;;;;;;5.77;3.30;;;-1.80;99.90;;;;;;5051375;28;20265;-65
2021/01/17 08:07:35;;;;;;;7.03;3.60;;;-1.80;99.90;;;;;;5051543;28;20340;-64
2021/01/17 08:10:03;;;;;;;7.27;3.70;;;-1.80;99.90;;;;;;5051656;28;22213;-64
2021/01/17 08:12:38;;;;;;;6.23;3.30;;;-1.80;99.90;;;;;;5051880;28;20695;-66
2021/01/17 08:15:22;;;;;;;5.20;3.20;;;-1.80;99.90;;;;;;5051700;28;20219;-63
2021/01/17 08:17:51;;;;;;;9.87;3.40;;;-1.70;99.90;;;;;;5051778;28;20191;-65
2021/01/17 08:20:29;;;;;;;4.10;2.30;;;-1.70;99.90;;;;;;5050704;28;20240;-64
2021/01/17 08:23:13;;;;;;;4.07;2.53;;;-1.80;99.90;;;;;;5050975;28;20218;-65
2021/01/17 08:25:55;;;;;;;6.57;3.10;;;-1.80;99.90;;;;;;5052119;28;20604;-65
2021/01/17 08:28:38;;;;;;;6.63;3.20;;;-1.80;99.90;;;;;;5051737;28;20215;-66
2021/01/17 08:31:40;;;;;;;8.10;3.63;;;-1.80;99.90;;;;;;5050125;28;20198;-68
2021/01/17 08:34:08;;;;;;;4.40;3.03;;;-1.70;99.90;;;;;;5048754;28;20191;-65
2021/01/17 08:36:35;;;;;;;9.37;3.30;;;-1.60;99.90;;;;;;5051841;28;20275;-65
2021/01/17 08:39:01;;;;;;;9.90;3.30;;;-1.60;99.90;;;;;;5048490;28;20349;-63
2021/01/17 08:41:28;;;;;;;5.30;2.97;;;-1.60;99.90;;;;;;5051595;28;20238;-63
2021/01/17 08:43:56;;;;;;;4.57;2.90;;;-1.50;99.90;;;;;;5051551;28;20215;-63
2021/01/17 08:46:36;;;;;;;4.93;2.97;;;-1.50;99.90;;;;;;5051706;28;20571;-64
2021/01/17 08:49:04;;;;;;;6.33;3.00;;;-1.50;99.90;;;;;;5051493;28;20389;-64
2021/01/17 08:51:31;;;;;;;5.33;3.43;;;-1.50;99.90;;;;;;5051364;28;20229;-64
2021/01/17 08:54:20;;;;;;;7.57;3.30;;;-1.50;99.90;;;;;;5051643;28;20223;-64
2021/01/17 08:56:47;;;;;;;5.60;3.13;;;-1.50;99.90;;;;;;5051114;28;20653;-62
2021/01/17 08:59:33;;;;;;;6.73;3.37;;;-1.50;99.90;;;;;;5050731;28;20301;-65
2021/01/17 09:02:00;;;;;;;7.97;3.67;;;-1.40;99.90;;;;;;5051012;28;20228;-63
2021/01/17 09:04:28;;;;;;;5.73;3.10;;;-1.50;99.90;;;;;;5050814;28;20661;-64
2021/01/17 09:06:55;;;;;;;4.70;3.40;;;-1.40;99.90;;;;;;5050983;28;20203;-64
2021/01/17 09:09:22;;;;;;;5.40;3.83;;;-1.40;99.90;;;;;;5051582;28;20314;-64
2021/01/17 09:11:50;;;;;;;7.93;3.30;;;-1.40;99.90;;;;;;5051750;28;20255;-63
2021/01/17 09:14:23;;;;;;;6.47;3.63;;;-1.30;99.90;;;;;;5051234;28;20550;-65
2021/01/17 09:16:52;;;;;;;7.23;3.77;;;-1.30;99.90;;;;;;5036348;28;20676;-64
2021/01/17 09:19:20;;;;;;;7.73;4.00;;;-1.30;99.90;;;;;;5040881;28;20274;-64
2021/01/17 09:21:50;;;;;;;6.50;4.03;;;-1.30;99.90;;;;;;5051369;28;20215;-65
2021/01/17 09:24:18;;;;;;;10.40;3.93;;;-1.30;99.90;;;;;;5051495;28;20215;-63
2021/01/17 09:26:47;;;;;;;7.43;4.03;;;-1.30;99.90;;;;;;5051011;28;20223;-66
2021/01/17 09:29:36;;;;;;;7.40;4.57;;;-1.30;99.90;;;;;;5051066;28;20215;-64
2021/01/17 09:32:08;;;;;;;4.77;3.50;;;-1.30;99.90;;;;;;5051903;28;20289;-66
2021/01/17 09:34:37;;;;;;;3.70;2.70;;;-1.20;99.90;;;;;;5054742;28;20258;-63
2021/01/17 09:37:08;;;;;;;3.33;1.90;;;-1.10;99.90;;;;;;5054613;28;20282;-64
2021/01/17 09:39:40;;;;;;;1.90;1.60;;;-1.10;99.90;;;;;;5046350;28;20192;-65
2021/01/17 09:42:08;;;;;;;2.40;1.67;;;-1.10;99.90;;;;;;5055215;28;20207;-64
2021/01/17 09:44:37;;;;;;;2.00;1.40;;;-1.10;99.90;;;;;;5055169;28;20215;-66
2021/01/17 09:47:13;;;;;;;2.23;1.30;;;-1.00;99.90;;;;;;5054991;28;20192;-64
2021/01/17 09:49:39;;;;;;;2.10;1.50;;;-1.00;99.90;;;;;;5055068;28;20207;-63
2021/01/17 09:52:11;;;;;;;1.30;1.10;;;-1.00;99.90;;;;;;5054589;28;20657;-65
2021/01/17 09:54:37;;;;;;;1.87;1.30;;;-0.90;99.90;;;;;;5055323;28;20180;-65
2021/01/17 09:57:15;;;;;;;1.07;0.80;;;-0.80;99.90;;;;;;5054887;28;20242;-65
2021/01/17 09:59:44;;;;;;;0.70;0.70;;;-0.80;99.90;;;;;;5055122;28;20191;-64
2021/01/17 10:02:11;;;;;;;0.53;0.53;;;-0.80;99.90;;;;;;5057688;28;20242;-64
2021/01/17 10:04:39;;;;;;;0.70;0.70;;;-0.70;99.90;;;;;;5055069;28;20283;-65
2021/01/17 10:07:06;;;;;;;1.33;0.70;;;-0.70;99.90;;;;;;5055172;28;20199;-67
2021/01/17 10:09:38;;;;;;;0.67;0.60;;;-0.80;99.90;;;;;;5053650;28;20604;-65
2021/01/17 10:12:05;;;;;;;0.50;0.40;;;-0.80;99.90;;;;;;5054187;28;20222;-65
2021/01/17 10:14:33;;;;;;;0.70;0.70;;;-0.70;99.90;;;;;;5053573;28;20183;-67
2021/01/17 10:17:05;;;;;;;0.73;0.60;;;-0.70;99.90;;;;;;5054458;28;20230;-67
2021/01/17 10:19:33;;;;;;;0.73;0.60;;;-0.60;99.90;;;;;;5054280;28;20198;-66
2021/01/17 10:22:03;;;;;;;0.60;0.60;;;-0.60;99.90;;;;;;5052326;28;20620;-66
2021/01/17 10:24:33;;;;;;;1.70;1.03;;;-0.60;99.90;;;;;;5052431;28;20215;-63
2021/01/17 10:27:01;;;;;;;0.90;0.80;;;-0.50;99.90;;;;;;5052488;28;20649;-63
2021/01/17 10:29:29;;;;;;;1.10;1.00;;;-0.40;99.90;;;;;;5051035;28;20694;-63
2021/01/17 10:32:02;;;;;;;1.00;0.90;;;-0.40;99.90;;;;;;5049708;28;20192;-63
2021/01/17 10:34:33;;;;;;;0.70;0.60;;;-0.40;99.90;;;;;;5054160;28;20262;-63
2021/01/17 10:37:02;;;;;;;10.53;4.67;;;-0.30;99.90;;;;;;5054359;28;20211;-63
2021/01/17 10:39:30;;;;;;;1.07;0.80;;;-0.30;99.90;;;;;;5054393;28;20203;-64
2021/01/17 10:42:09;;;;;;;2.23;1.70;;;-0.30;99.90;;;;;;5053264;28;20297;-64
2021/01/17 10:44:46;;;;;;;2.80;2.00;;;-0.30;99.90;;;;;;5053712;28;20187;-65
2021/01/17 10:47:31;;;;;;;6.00;2.67;;;-0.40;99.90;;;;;;5034033;28;20223;-64
2021/01/17 10:50:02;;;;;;;3.07;2.37;;;-0.50;99.90;;;;;;5033918;28;20618;-63
2021/01/17 10:52:33;;;;;;;4.97;3.03;;;-0.70;99.90;;;;;;5048458;28;20194;-66
2021/01/17 10:55:01;;;;;;;3.37;2.73;;;-0.60;99.90;;;;;;5053955;28;20507;-63
2021/01/17 10:57:28;;;;;;;3.30;2.40;;;-0.70;99.90;;;;;;5052959;28;20226;-64
2021/01/17 11:00:04;;;;;;;4.40;3.10;;;-0.70;99.90;;;;;;5053448;28;20226;-67
2021/01/17 11:02:31;;;;;;;4.10;2.70;;;-0.60;99.90;;;;;;5050904;28;20223;-65
2021/01/17 11:04:58;;;;;;;4.60;3.00;;;-0.60;99.90;;;;;;5053894;28;20188;-65
2021/01/17 11:07:27;;;;;;;5.40;2.80;;;-0.60;99.90;;;;;;5053304;28;20230;-64
2021/01/17 11:09:55;;;;;;;4.27;2.77;;;-0.60;99.90;;;;;;5052879;28;20685;-65
2021/01/17 11:12:35;;;;;;;3.97;2.50;;;-0.60;99.90;;;;;;5053605;28;20298;-65
2021/01/17 11:15:13;;;;;;;5.63;2.80;;;-0.70;99.90;;;;;;5053810;28;20200;-65
2021/01/17 11:17:42;;;;;;;3.57;2.67;;;-0.60;99.90;;;;;;5053335;28;20188;-64
2021/01/17 11:20:09;;;;;;;2.43;1.93;;;-0.60;99.90;;;;;;5053635;28;20242;-65
2021/01/17 11:22:36;;;;;;;3.10;2.33;;;-0.60;99.90;;;;;;5053332;28;20206;-62
2021/01/17 11:25:04;;;;;;;2.97;2.43;;;-0.60;99.90;;;;;;5054082;28;20218;-66
2021/01/17 11:27:37;;;;;;;3.60;2.27;;;-0.70;99.90;;;;;;5053349;28;20237;-64
2021/01/17 11:30:05;;;;;;;2.80;2.20;;;-0.70;99.90;;;;;;5053744;28;20210;-65
2021/01/17 11:32:34;;;;;;;2.93;1.87;;;-0.60;99.90;;;;;;5051576;28;20665;-64
2021/01/17 11:35:01;;;;;;;1.87;1.67;;;-0.60;99.90;;;;;;5052079;28;20239;-64
2021/01/17 11:37:35;;;;;;;4.10;2.57;;;-0.60;99.90;;;;;;5053249;28;20235;-65
2021/01/17 11:40:07;;;;;;;3.07;2.13;;;-0.60;99.90;;;;;;5052941;28;20230;-65
2021/01/17 11:42:33;;;;;;;3.47;1.93;;;-0.40;99.90;;;;;;5052806;28;20237;-64
2021/01/17 11:45:13;;;;;;;4.43;2.40;;;-0.40;99.90;;;;;;5052641;28;20206;-65
2021/01/17 11:47:41;;;;;;;2.50;1.93;;;-0.40;99.90;;;;;;5052596;28;20206;-65
2021/01/17 11:50:16;;;;;;;3.23;2.20;;;-0.50;99.90;;;;;;5052359;28;20191;-67
2021/01/17 11:52:43;;;;;;;5.73;2.53;;;-0.40;99.90;;;;;;5052578;28;20183;-66
2021/01/17 11:55:11;;;;;;;3.73;2.20;;;-0.50;99.90;;;;;;5052967;28;20199;-64
2021/01/17 11:57:37;;;;;;;3.53;2.10;;;-0.50;99.90;;;;;;5052519;28;20238;-64
2021/01/17 12:00:05;;;;;;;3.60;2.43;;;-0.50;99.90;;;;;;5052896;28;20636;-66
2021/01/17 12:02:39;;;;;;;2.67;2.30;;;-0.60;99.90;;;;;;5052755;28;20570;-65
2021/01/17 12:05:07;;;;;;;4.53;2.47;;;-0.60;99.90;;;;;;5052590;28;20191;-66
2021/01/17 12:07:35;;;;;;;4.27;2.33;;;-0.50;99.90;;;;;;5051870;28;20195;-64
2021/01/17 12:10:05;;;;;;;5.17;2.70;;;-0.40;99.90;;;;;;5052734;28;20215;-65
2021/01/17 12:12:35;;;;;;;4.27;2.50;;;-0.50;99.90;;;;;;5052201;28;20195;-64
2021/01/17 12:15:01;;;;;;;5.77;2.33;;;-0.50;99.90;;;;;;5053307;28;20245;-65
2021/01/17 12:17:28;;;;;;;6.17;2.60;;;-0.50;99.90;;;;;;5052742;28;20249;-65
2021/01/17 12:19:54;;;;;;;5.73;2.80;;;-0.60;99.90;;;;;;5052293;28;20214;-64
2021/01/17 12:22:21;;;;;;;3.97;2.70;;;-0.60;99.90;;;;;;5052018;28;20191;-65
2021/01/17 12:24:49;;;;;;;3.77;2.47;;;-0.70;99.90;;;;;;5052276;28;20191;-65
2021/01/17 12:27:16;;;;;;;4.90;2.60;;;-0.70;99.90;;;;;;5052548;28;20223;-65
2021/01/17 12:29:42;;;;;;;4.00;2.67;;;-0.70;99.90;;;;;;5051878;28;20303;-66
2021/01/17 12:32:09;;;;;;;3.90;2.13;;;-0.70;99.90;;;;;;5052563;28;20302;-64
2021/01/17 12:34:35;;;;;;;3.60;2.60;;;-0.70;99.90;;;;;;5052552;28;20266;-66
2021/01/17 12:37:02;;;;;;;5.43;2.53;;;-0.80;99.90;;;;;;5051796;28;20333;-66
2021/01/17 12:39:28;;;;;;;5.03;2.40;;;-0.80;99.90;;;;;;5051156;28;20320;-65
2021/01/17 12:41:58;;;;;;;4.80;2.63;;;-0.80;99.90;;;;;;5052151;28;20192;-67
2021/01/17 12:44:25;;;;;;;4.47;2.40;;;-0.80;99.90;;;;;;5052387;28;20188;-64
2021/01/17 12:46:52;;;;;;;4.77;2.47;;;-0.80;99.90;;;;;;5052384;28;20245;-63
2021/01/17 12:49:18;;;;;;;4.37;2.60;;;-0.80;99.90;;;;;;5051489;28;20239;-64
2021/01/17 12:51:46;;;;;;;5.17;3.03;;;-0.90;99.90;;;;;;5051161;28;20687;-66
2021/01/17 12:54:12;;;;;;;5.13;2.73;;;-0.90;99.90;;;;;;5052337;28;20219;-65
2021/01/17 12:56:39;;;;;;;3.50;2.40;;;-0.80;99.90;;;;;;5051937;28;20330;-64
2021/01/17 12:59:07;;;;;;;4.37;2.30;;;-0.80;99.90;;;;;;5052429;28;20196;-65